Terminal Aerodrome Forecast
Issued by NWS New Orleans/Baton Rouge, LA

Home | Current Version | Previous Version | Text Only | Print | Product List | Glossary On
Versions: 1 2 3 4 5 6 7 8 9 10 11 12
000
FTUS44 KLIX 271134
TAFNEW
TAF
KNEW 271134Z 2712/2812 15010KT P6SM SCT025 OVC080
     FM271300 14009KT P6SM VCSH SCT025 BKN040
     FM271800 18010KT P6SM SCT025 OVC050
      TEMPO 2718/2721 3SM TSRA OVC025CB
     FM272100 17010KT P6SM SCT025 OVC040 PROB30 2721/2802 4SM TSRA
      OVC025CB
     FM280200 15008KT P6SM BKN030
     FM280600 15008KT P6SM BKN008=

USA.gov is the U.S. government's official web portal to all federal, state and local government web resources and services.